Time;durP1;ratioP1;P1;durP2;ratioP2;P2;SDS_P1;SDS_P2;PMS_P1;PMS_P2;Temp;Humidity;BMP_temperature;BMP_pressure;BME280_temperature;BME280_humidity;BME280_pressure;Samples;Min_cycle;Max_cycle;Signal;HPM_P1;HPM_P2
2022/08/11 00:00:13;;;;;;;3.60;1.90;;;;;;;;;;504512;29;1291;-89
2022/08/11 00:00:35;;;;;;;4.60;2.00;;;;;;;;;;504487;29;1212;-90
2022/08/11 00:00:51;;;;;;;2.35;1.90;;;;;;;;;;504403;29;1312;-89
2022/08/11 00:01:10;;;;;;;3.55;1.90;;;;;;;;;;505412;29;1374;-89
2022/08/11 00:01:27;;;;;;;6.50;2.05;;;;;;;;;;506452;29;1238;-90
2022/08/11 00:01:48;;;;;;;8.00;2.15;;;;;;;;;;507551;29;948;-90
2022/08/11 00:02:04;;;;;;;5.45;2.03;;;;;;;;;;510286;29;1429;-88
2022/08/11 00:02:31;;;;;;;3.22;1.90;;;;;;;;;;510286;29;1380;-89
2022/08/11 00:02:51;;;;;;;3.65;1.90;;;;;;;;;;508999;29;980;-89
2022/08/11 00:03:09;;;;;;;5.03;1.92;;;;;;;;;;508209;29;1401;-90
2022/08/11 00:03:25;;;;;;;4.03;1.80;;;;;;;;;;508412;29;1462;-89
2022/08/11 00:03:43;;;;;;;1.98;1.70;;;;;;;;;;508417;29;1358;-88
2022/08/11 00:04:02;;;;;;;1.92;1.73;;;;;;;;;;508599;29;889;-89
2022/08/11 00:04:22;;;;;;;3.28;1.90;;;;;;;;;;506366;29;1309;-89
2022/08/11 00:04:38;;;;;;;3.35;2.00;;;;;;;;;;504404;29;1343;-89
2022/08/11 00:04:56;;;;;;;2.45;1.88;;;;;;;;;;506478;29;1322;-89
2022/08/11 00:05:15;;;;;;;3.17;1.77;;;;;;;;;;508408;29;1501;-89
2022/08/11 00:05:30;;;;;;;4.20;2.03;;;;;;;;;;508468;29;1254;-89
2022/08/11 00:05:50;;;;;;;4.57;2.07;;;;;;;;;;508305;29;1368;-89
2022/08/11 00:06:06;;;;;;;4.47;2.03;;;;;;;;;;508363;29;1349;-89
2022/08/11 00:06:30;;;;;;;2.80;1.88;;;;;;;;;;506545;29;1247;-90
2022/08/11 00:06:47;;;;;;;3.78;1.90;;;;;;;;;;504252;29;1534;-90
2022/08/11 00:07:04;;;;;;;3.58;2.00;;;;;;;;;;504360;29;1510;-89
2022/08/11 00:07:19;;;;;;;4.00;1.90;;;;;;;;;;502505;29;1324;-89
2022/08/11 00:07:44;;;;;;;4.75;1.85;;;;;;;;;;504627;29;1237;-89
2022/08/11 00:08:00;;;;;;;3.17;1.90;;;;;;;;;;505579;29;830;-89
2022/08/11 00:08:24;;;;;;;3.20;2.00;;;;;;;;;;507406;29;1240;-90
2022/08/11 00:08:41;;;;;;;4.63;2.10;;;;;;;;;;508437;29;1225;-89
2022/08/11 00:08:58;;;;;;;4.75;2.10;;;;;;;;;;507633;29;1310;-89
2022/08/11 00:09:20;;;;;;;3.17;1.88;;;;;;;;;;508326;29;1386;-89
2022/08/11 00:09:37;;;;;;;2.45;1.80;;;;;;;;;;506558;29;1432;-90
2022/08/11 00:09:54;;;;;;;2.60;1.80;;;;;;;;;;506424;29;1340;-88
2022/08/11 00:10:12;;;;;;;2.30;1.80;;;;;;;;;;504534;29;1271;-89
2022/08/11 00:10:29;;;;;;;2.40;1.70;;;;;;;;;;506428;29;1348;-89
2022/08/11 00:10:52;;;;;;;2.40;1.70;;;;;;;;;;508399;29;1317;-89
2022/08/11 00:11:11;;;;;;;2.70;1.80;;;;;;;;;;506369;29;1288;-90
2022/08/11 00:11:55;;;;;;;3.92;2.00;;;;;;;;;;508469;29;1456;-90
2022/08/11 00:12:14;;;;;;;3.42;1.80;;;;;;;;;;506348;29;1284;-89
2022/08/11 00:12:30;;;;;;;2.67;1.90;;;;;;;;;;506661;29;1421;-89
2022/08/11 00:12:57;;;;;;;2.20;1.95;;;;;;;;;;508435;29;1242;-89
2022/08/11 00:13:13;;;;;;;3.25;1.90;;;;;;;;;;510305;29;1099;-90
2022/08/11 00:13:44;;;;;;;3.07;1.93;;;;;;;;;;508329;29;1323;-89
2022/08/11 00:14:00;;;;;;;2.42;1.75;;;;;;;;;;508699;29;905;-89
2022/08/11 00:14:21;;;;;;;3.08;1.80;;;;;;;;;;508229;29;1317;-89
2022/08/11 00:14:37;;;;;;;3.90;2.00;;;;;;;;;;505130;29;1468;-89
2022/08/11 00:15:00;;;;;;;3.85;2.00;;;;;;;;;;506487;29;1411;-89
2022/08/11 00:15:16;;;;;;;3.85;2.00;;;;;;;;;;506374;29;1269;-90
2022/08/11 00:15:41;;;;;;;3.50;1.93;;;;;;;;;;504614;29;1209;-89
2022/08/11 00:15:56;;;;;;;4.18;1.88;;;;;;;;;;506515;29;1368;-89
2022/08/11 00:16:15;;;;;;;4.50;2.07;;;;;;;;;;506440;29;1325;-90
2022/08/11 00:16:31;;;;;;;3.30;2.00;;;;;;;;;;506515;29;1381;-90
2022/08/11 00:17:00;;;;;;;2.65;1.90;;;;;;;;;;506484;29;1449;-90
2022/08/11 00:17:16;;;;;;;3.45;2.00;;;;;;;;;;508077;29;1337;-90
2022/08/11 00:17:33;;;;;;;3.75;1.95;;;;;;;;;;508469;29;1355;-89
2022/08/11 00:17:55;;;;;;;3.10;1.77;;;;;;;;;;506483;29;1504;-90
2022/08/11 00:18:12;;;;;;;3.30;1.90;;;;;;;;;;506418;29;1278;-89
2022/08/11 00:18:37;;;;;;;3.63;1.83;;;;;;;;;;508500;29;1381;-90
2022/08/11 00:18:55;;;;;;;2.92;1.90;;;;;;;;;;508328;29;1278;-90
2022/08/11 00:19:18;;;;;;;3.83;1.80;;;;;;;;;;508326;29;1249;-89
2022/08/11 00:19:36;;;;;;;3.25;1.90;;;;;;;;;;508310;29;953;-90
2022/08/11 00:20:05;;;;;;;3.50;1.98;;;;;;;;;;508322;29;1313;-90
2022/08/11 00:20:21;;;;;;;2.55;1.70;;;;;;;;;;509132;29;1119;-89
2022/08/11 00:20:43;;;;;;;2.97;1.70;;;;;;;;;;510433;29;1401;-89
2022/08/11 00:20:59;;;;;;;2.28;1.77;;;;;;;;;;506701;29;1388;-89
2022/08/11 00:21:15;;;;;;;2.75;1.90;;;;;;;;;;508366;29;866;-89
2022/08/11 00:21:40;;;;;;;3.42;1.90;;;;;;;;;;508396;29;1907;-89
2022/08/11 00:21:56;;;;;;;3.15;1.83;;;;;;;;;;506305;29;1354;-90
2022/08/11 00:22:20;;;;;;;2.53;1.95;;;;;;;;;;506501;29;1012;-89
2022/08/11 00:22:40;;;;;;;4.47;1.90;;;;;;;;;;508001;29;1238;-90
2022/08/11 00:23:05;;;;;;;6.32;1.92;;;;;;;;;;507852;29;1345;-89
2022/08/11 00:23:20;;;;;;;3.85;1.90;;;;;;;;;;508454;29;1251;-90
2022/08/11 00:23:45;;;;;;;5.60;1.98;;;;;;;;;;508407;29;1195;-90
2022/08/11 00:24:02;;;;;;;4.30;1.90;;;;;;;;;;508463;29;1276;-90
2022/08/11 00:24:20;;;;;;;4.25;1.83;;;;;;;;;;508240;29;1391;-89
2022/08/11 00:24:38;;;;;;;2.78;1.63;;;;;;;;;;508359;29;1446;-89
2022/08/11 00:24:53;;;;;;;3.83;1.90;;;;;;;;;;510020;29;900;-90
2022/08/11 00:25:11;;;;;;;3.63;1.98;;;;;;;;;;508420;29;1299;-89
2022/08/11 00:25:27;;;;;;;3.15;1.80;;;;;;;;;;506566;29;1219;-90
2022/08/11 00:25:45;;;;;;;2.85;1.80;;;;;;;;;;506468;29;908;-89
2022/08/11 00:26:06;;;;;;;4.40;1.85;;;;;;;;;;504614;29;1398;-90
2022/08/11 00:26:23;;;;;;;3.45;2.05;;;;;;;;;;504702;29;1305;-89
2022/08/11 00:26:39;;;;;;;4.78;2.08;;;;;;;;;;506372;29;1420;-89
2022/08/11 00:26:55;;;;;;;4.53;1.90;;;;;;;;;;506496;29;1169;-90
2022/08/11 00:27:10;;;;;;;3.03;1.70;;;;;;;;;;508281;29;1255;-89
2022/08/11 00:27:34;;;;;;;3.47;1.88;;;;;;;;;;506515;29;1205;-89
2022/08/11 00:27:49;;;;;;;4.10;1.90;;;;;;;;;;508297;29;1342;-89
2022/08/11 00:28:31;;;;;;;3.33;1.80;;;;;;;;;;508301;29;1382;-88
2022/08/11 00:28:47;;;;;;;2.22;1.75;;;;;;;;;;507578;29;857;-89
2022/08/11 00:29:12;;;;;;;2.00;1.80;;;;;;;;;;505273;29;1274;-90
2022/08/11 00:29:27;;;;;;;2.47;1.83;;;;;;;;;;508455;29;1487;-89
2022/08/11 00:29:53;;;;;;;3.38;1.80;;;;;;;;;;508275;29;1192;-88
2022/08/11 00:30:10;;;;;;;4.35;2.00;;;;;;;;;;510258;29;1233;-88
2022/08/11 00:30:38;;;;;;;5.50;2.17;;;;;;;;;;510389;29;1236;-88
2022/08/11 00:30:55;;;;;;;3.58;2.00;;;;;;;;;;511044;29;1103;-89
2022/08/11 00:31:23;;;;;;;3.42;1.92;;;;;;;;;;510336;29;1233;-89
2022/08/11 00:31:45;;;;;;;3.80;1.90;;;;;;;;;;510331;29;1411;-89
2022/08/11 00:32:04;;;;;;;6.35;2.00;;;;;;;;;;510322;29;1236;-89
2022/08/11 00:32:19;;;;;;;5.82;1.90;;;;;;;;;;509301;29;1388;-89
2022/08/11 00:32:37;;;;;;;4.27;1.90;;;;;;;;;;508438;29;1319;-89
2022/08/11 00:32:57;;;;;;;4.57;1.98;;;;;;;;;;510276;29;1328;-89
2022/08/11 00:33:12;;;;;;;6.32;2.00;;;;;;;;;;510390;29;967;-89
2022/08/11 00:33:42;;;;;;;3.85;2.00;;;;;;;;;;509903;29;1196;-89
2022/08/11 00:34:00;;;;;;;4.70;1.88;;;;;;;;;;510274;29;1492;-89
2022/08/11 00:34:20;;;;;;;3.08;1.80;;;;;;;;;;506909;29;1392;-90
2022/08/11 00:34:37;;;;;;;3.75;1.80;;;;;;;;;;506479;29;1555;-89
2022/08/11 00:34:53;;;;;;;3.80;2.00;;;;;;;;;;502815;29;1269;-89
2022/08/11 00:35:15;;;;;;;3.20;1.85;;;;;;;;;;502545;29;1251;-89
2022/08/11 00:35:32;;;;;;;2.58;1.80;;;;;;;;;;506411;29;1409;-89
2022/08/11 00:35:49;;;;;;;2.22;1.80;;;;;;;;;;506464;29;1364;-89
2022/08/11 00:36:07;;;;;;;3.20;2.00;;;;;;;;;;508417;29;1480;-89
2022/08/11 00:36:41;;;;;;;3.35;1.95;;;;;;;;;;508379;29;1379;-89
2022/08/11 00:37:02;;;;;;;3.28;1.88;;;;;;;;;;510028;29;1306;-90
2022/08/11 00:37:21;;;;;;;3.05;1.98;;;;;;;;;;508337;29;1310;-89
2022/08/11 00:37:37;;;;;;;3.50;2.08;;;;;;;;;;508334;29;1357;-89
2022/08/11 00:37:55;;;;;;;4.20;2.00;;;;;;;;;;506727;29;1251;-90
2022/08/11 00:38:12;;;;;;;3.45;1.92;;;;;;;;;;506326;29;1488;-89
2022/08/11 00:38:31;;;;;;;2.92;1.95;;;;;;;;;;506481;29;802;-89
2022/08/11 00:38:50;;;;;;;2.35;1.80;;;;;;;;;;504420;29;1293;-89
2022/08/11 00:39:07;;;;;;;2.55;1.83;;;;;;;;;;504859;29;1426;-90
2022/08/11 00:39:24;;;;;;;3.22;2.20;;;;;;;;;;504437;29;1325;-90
2022/08/11 00:39:45;;;;;;;4.85;2.10;;;;;;;;;;504476;29;1234;-90
2022/08/11 00:40:06;;;;;;;5.25;2.03;;;;;;;;;;504426;29;1374;-90
2022/08/11 00:40:46;;;;;;;6.57;2.10;;;;;;;;;;502553;29;1290;-90
2022/08/11 00:41:19;;;;;;;6.68;2.10;;;;;;;;;;505671;29;1314;-90
2022/08/11 00:42:18;;;;;;;2.75;1.70;;;;;;;;;;505208;29;1907;-88
2022/08/11 00:42:51;;;;;;;3.27;1.93;;;;;;;;;;506417;29;1222;-88
2022/08/11 00:43:30;;;;;;;3.10;1.90;;;;;;;;;;509336;29;1621;-88
2022/08/11 00:44:00;;;;;;;3.00;2.00;;;;;;;;;;506074;29;1472;-88
2022/08/11 00:44:35;;;;;;;3.80;1.90;;;;;;;;;;506133;29;1353;-88
2022/08/11 00:45:23;;;;;;;3.08;1.92;;;;;;;;;;507407;29;1257;-88
2022/08/11 00:45:45;;;;;;;2.80;1.70;;;;;;;;;;500529;29;1283;-88
2022/08/11 00:46:31;;;;;;;2.85;1.90;;;;;;;;;;500593;29;1366;-88
2022/08/11 00:46:49;;;;;;;2.92;1.80;;;;;;;;;;501877;29;1340;-89
2022/08/11 00:47:07;;;;;;;3.20;1.90;;;;;;;;;;506806;29;1413;-90
2022/08/11 00:47:34;;;;;;;3.15;1.75;;;;;;;;;;504382;29;1360;-89
2022/08/11 00:48:04;;;;;;;3.08;1.90;;;;;;;;;;504720;29;1269;-88
2022/08/11 00:49:05;;;;;;;2.30;2.00;;;;;;;;;;506282;29;1272;-89
2022/08/11 00:49:33;;;;;;;2.50;1.83;;;;;;;;;;502373;29;1470;-88
2022/08/11 00:50:01;;;;;;;3.75;1.90;;;;;;;;;;507692;29;873;-89
2022/08/11 00:50:23;;;;;;;2.63;1.88;;;;;;;;;;508116;29;1207;-89
2022/08/11 00:50:48;;;;;;;3.03;2.00;;;;;;;;;;510343;29;1321;-89
2022/08/11 00:51:39;;;;;;;4.07;2.00;;;;;;;;;;508247;29;1418;-89
2022/08/11 00:52:27;;;;;;;5.22;2.10;;;;;;;;;;510243;29;1349;-89
2022/08/11 00:53:16;;;;;;;2.25;1.77;;;;;;;;;;508196;29;1260;-89
2022/08/11 00:53:47;;;;;;;2.47;1.70;;;;;;;;;;510291;29;1245;-87
2022/08/11 00:54:17;;;;;;;3.45;1.98;;;;;;;;;;508304;29;1369;-89
2022/08/11 00:54:38;;;;;;;3.22;1.77;;;;;;;;;;509842;29;936;-87
2022/08/11 00:55:01;;;;;;;3.67;2.00;;;;;;;;;;510205;29;1320;-88
2022/08/11 00:55:35;;;;;;;3.50;1.98;;;;;;;;;;508237;29;1036;-88
2022/08/11 00:56:09;;;;;;;2.42;1.77;;;;;;;;;;511438;28;1064;-88
2022/08/11 00:56:39;;;;;;;2.78;1.80;;;;;;;;;;508232;29;1213;-88
2022/08/11 00:57:13;;;;;;;4.20;2.00;;;;;;;;;;508033;29;1355;-88
2022/08/11 00:58:06;;;;;;;3.60;2.00;;;;;;;;;;508073;29;1251;-88
2022/08/11 00:58:47;;;;;;;2.40;1.90;;;;;;;;;;511572;29;987;-88
2022/08/11 00:59:36;;;;;;;2.95;2.08;;;;;;;;;;508248;29;1207;-87
2022/08/11 01:00:12;;;;;;;3.55;2.00;;;;;;;;;;508346;29;913;-88
2022/08/11 01:00:33;;;;;;;2.80;1.90;;;;;;;;;;508228;29;1392;-88
2022/08/11 01:01:08;;;;;;;2.50;1.90;;;;;;;;;;508172;29;1385;-88
2022/08/11 01:01:44;;;;;;;2.70;1.80;;;;;;;;;;510156;29;865;-88
2022/08/11 01:02:15;;;;;;;2.97;1.90;;;;;;;;;;509693;29;1267;-88
2022/08/11 01:02:46;;;;;;;2.10;1.90;;;;;;;;;;510313;29;1352;-88
2022/08/11 01:03:17;;;;;;;3.00;2.00;;;;;;;;;;511587;29;1475;-88
2022/08/11 01:03:58;;;;;;;3.05;2.10;;;;;;;;;;511015;29;1289;-88
2022/08/11 01:04:51;;;;;;;3.47;2.05;;;;;;;;;;510499;29;1159;-88
2022/08/11 01:05:36;;;;;;;3.63;1.90;;;;;;;;;;508053;29;1409;-88
2022/08/11 01:06:32;;;;;;;3.15;1.90;;;;;;;;;;510269;29;1112;-88
2022/08/11 01:07:15;;;;;;;3.83;2.00;;;;;;;;;;507976;29;1207;-88
2022/08/11 01:07:58;;;;;;;3.00;1.90;;;;;;;;;;509980;29;1521;-88
2022/08/11 01:08:28;;;;;;;3.00;2.00;;;;;;;;;;510117;29;901;-88
2022/08/11 01:09:05;;;;;;;3.85;2.00;;;;;;;;;;508035;29;1482;-88
2022/08/11 01:09:58;;;;;;;2.80;2.10;;;;;;;;;;508554;29;869;-88
2022/08/11 01:10:48;;;;;;;2.72;1.90;;;;;;;;;;511841;29;1243;-88
2022/08/11 01:11:34;;;;;;;3.08;1.95;;;;;;;;;;510560;29;1290;-88
2022/08/11 01:12:13;;;;;;;3.03;1.95;;;;;;;;;;511690;29;1233;-88
2022/08/11 01:12:54;;;;;;;2.55;1.70;;;;;;;;;;512120;29;1308;-88
2022/08/11 01:13:47;;;;;;;4.07;2.05;;;;;;;;;;510110;29;1340;-88
2022/08/11 01:14:04;;;;;;;3.80;1.70;;;;;;;;;;508092;29;1313;-89
2022/08/11 01:14:47;;;;;;;2.53;1.85;;;;;;;;;;507433;29;1367;-88
2022/08/11 01:15:24;;;;;;;4.75;1.95;;;;;;;;;;507151;29;917;-89
2022/08/11 01:16:04;;;;;;;2.30;1.90;;;;;;;;;;508251;29;873;-88
2022/08/11 01:16:36;;;;;;;3.05;1.80;;;;;;;;;;510371;28;1446;-89
2022/08/11 01:17:13;;;;;;;3.20;1.75;;;;;;;;;;508140;29;862;-89
2022/08/11 01:17:51;;;;;;;2.92;1.95;;;;;;;;;;509816;29;1344;-88
2022/08/11 01:18:31;;;;;;;3.67;1.90;;;;;;;;;;511900;29;916;-88
2022/08/11 01:18:58;;;;;;;2.50;1.70;;;;;;;;;;510674;29;1254;-88
2022/08/11 01:19:54;;;;;;;1.75;1.60;;;;;;;;;;509847;29;1229;-88
2022/08/11 01:20:27;;;;;;;2.33;1.77;;;;;;;;;;509992;29;1447;-88
2022/08/11 01:20:52;;;;;;;2.65;2.05;;;;;;;;;;508920;29;1473;-88
2022/08/11 01:21:46;;;;;;;2.40;1.80;;;;;;;;;;507840;29;1432;-88
2022/08/11 01:22:23;;;;;;;2.25;1.80;;;;;;;;;;508675;29;1348;-89
2022/08/11 01:23:04;;;;;;;2.00;1.80;;;;;;;;;;508033;29;1471;-88
2022/08/11 01:23:44;;;;;;;3.10;1.70;;;;;;;;;;505910;29;1379;-88
2022/08/11 01:24:09;;;;;;;3.70;2.00;;;;;;;;;;510415;29;959;-88
2022/08/11 01:24:25;;;;;;;3.28;2.00;;;;;;;;;;510244;29;1448;-88
2022/08/11 01:24:43;;;;;;;4.68;2.00;;;;;;;;;;510029;29;1378;-88
2022/08/11 01:25:29;;;;;;;3.72;1.90;;;;;;;;;;508280;29;1401;-88
2022/08/11 01:25:55;;;;;;;2.80;1.90;;;;;;;;;;511519;29;1267;-88
2022/08/11 01:26:55;;;;;;;3.45;1.85;;;;;;;;;;512052;29;1436;-88
2022/08/11 01:27:24;;;;;;;2.92;1.80;;;;;;;;;;504302;29;999;-88
2022/08/11 01:28:08;;;;;;;2.95;1.73;;;;;;;;;;506118;29;1328;-88
2022/08/11 01:28:48;;;;;;;2.30;1.95;;;;;;;;;;501283;29;1483;-87
2022/08/11 01:29:50;;;;;;;4.85;2.05;;;;;;;;;;498358;29;978;-88
2022/08/11 01:30:22;;;;;;;3.45;2.08;;;;;;;;;;509628;29;1413;-88
2022/08/11 01:31:32;;;;;;;3.95;2.15;;;;;;;;;;506096;29;1517;-89
2022/08/11 01:31:59;;;;;;;3.42;1.90;;;;;;;;;;508137;29;1264;-88
2022/08/11 01:32:14;;;;;;;3.03;1.80;;;;;;;;;;508988;29;1269;-88
2022/08/11 01:32:54;;;;;;;2.03;1.75;;;;;;;;;;510917;29;1308;-88
2022/08/11 01:33:35;;;;;;;3.58;1.90;;;;;;;;;;510363;29;971;-88
2022/08/11 01:34:19;;;;;;;2.83;1.98;;;;;;;;;;509912;29;1256;-88
2022/08/11 01:34:47;;;;;;;2.88;2.00;;;;;;;;;;510585;29;1286;-88
2022/08/11 01:35:40;;;;;;;2.13;1.90;;;;;;;;;;512125;29;1356;-88
2022/08/11 01:36:25;;;;;;;3.50;2.00;;;;;;;;;;510187;29;909;-89
2022/08/11 01:37:11;;;;;;;4.35;2.00;;;;;;;;;;507885;29;1697;-87
2022/08/11 01:37:38;;;;;;;3.20;2.15;;;;;;;;;;510080;29;1613;-88
2022/08/11 01:38:12;;;;;;;2.97;2.00;;;;;;;;;;509922;29;1369;-89
2022/08/11 01:39:01;;;;;;;3.10;2.00;;;;;;;;;;510008;29;1316;-88
2022/08/11 01:39:51;;;;;;;3.03;2.10;;;;;;;;;;509961;29;858;-88
2022/08/11 01:40:25;;;;;;;3.78;2.15;;;;;;;;;;510098;29;1345;-88
2022/08/11 01:41:01;;;;;;;2.60;1.98;;;;;;;;;;508012;29;1245;-88
2022/08/11 01:44:36;;;;;;;4.70;2.15;;;;;;;;;;507775;29;1235;-88
2022/08/11 01:44:53;;;;;;;2.55;1.90;;;;;;;;;;510208;29;1392;-88
2022/08/11 01:45:42;;;;;;;4.03;2.00;;;;;;;;;;510588;29;893;-88
2022/08/11 01:47:06;;;;;;;4.30;1.95;;;;;;;;;;510071;29;873;-88
2022/08/11 01:48:21;;;;;;;2.45;1.90;;;;;;;;;;504303;29;664;-88
2022/08/11 01:48:41;;;;;;;2.55;2.10;;;;;;;;;;507156;29;1340;-88
2022/08/11 01:49:14;;;;;;;2.60;1.92;;;;;;;;;;508034;29;929;-89
2022/08/11 01:49:33;;;;;;;3.03;1.90;;;;;;;;;;507567;29;1239;-87
2022/08/11 01:50:04;;;;;;;3.78;2.05;;;;;;;;;;508885;29;1429;-87
2022/08/11 01:50:50;;;;;;;3.40;1.90;;;;;;;;;;508311;29;1249;-88
2022/08/11 01:51:36;;;;;;;2.45;1.85;;;;;;;;;;505523;29;1432;-88
2022/08/11 01:52:11;;;;;;;4.28;2.03;;;;;;;;;;507404;29;1513;-88
2022/08/11 01:52:41;;;;;;;2.55;2.10;;;;;;;;;;507861;29;1582;-88
2022/08/11 01:53:21;;;;;;;3.42;1.92;;;;;;;;;;508583;29;1421;-88
2022/08/11 01:53:40;;;;;;;4.07;2.20;;;;;;;;;;508152;29;1432;-87
2022/08/11 01:54:12;;;;;;;3.67;2.08;;;;;;;;;;506441;29;1615;-88
2022/08/11 01:54:36;;;;;;;3.30;2.10;;;;;;;;;;505499;29;1422;-89
2022/08/11 01:55:25;;;;;;;3.60;2.10;;;;;;;;;;504707;29;1636;-88
2022/08/11 01:56:10;;;;;;;2.63;2.00;;;;;;;;;;498914;29;1599;-88
2022/08/11 01:56:40;;;;;;;2.40;1.90;;;;;;;;;;502190;29;1055;-88
2022/08/11 01:57:27;;;;;;;3.88;2.00;;;;;;;;;;509127;29;1448;-88
2022/08/11 01:57:54;;;;;;;2.28;1.80;;;;;;;;;;507307;29;1536;-88
2022/08/11 01:58:19;;;;;;;2.03;1.83;;;;;;;;;;507156;29;1359;-88
2022/08/11 01:58:49;;;;;;;2.65;1.92;;;;;;;;;;504520;29;1456;-87
2022/08/11 01:59:48;;;;;;;2.67;1.88;;;;;;;;;;504299;29;1564;-87
2022/08/11 02:00:06;;;;;;;3.35;2.00;;;;;;;;;;506578;29;1476;-89
2022/08/11 02:00:29;;;;;;;2.60;2.00;;;;;;;;;;507912;29;861;-89
2022/08/11 02:00:57;;;;;;;2.58;2.10;;;;;;;;;;505981;29;866;-88
2022/08/11 02:01:36;;;;;;;2.92;2.00;;;;;;;;;;508654;29;1232;-89
2022/08/11 02:02:03;;;;;;;2.80;2.08;;;;;;;;;;507595;29;866;-88
2022/08/11 02:02:18;;;;;;;3.03;1.80;;;;;;;;;;505998;29;1274;-88
2022/08/11 02:02:46;;;;;;;3.00;1.90;;;;;;;;;;504858;29;1232;-88
2022/08/11 02:03:17;;;;;;;3.15;2.08;;;;;;;;;;504606;29;922;-89
2022/08/11 02:03:56;;;;;;;3.63;1.90;;;;;;;;;;505933;29;1117;-88
2022/08/11 02:04:24;;;;;;;2.28;1.83;;;;;;;;;;506796;29;1430;-89
2022/08/11 02:04:45;;;;;;;3.35;1.90;;;;;;;;;;509935;29;881;-89
2022/08/11 02:05:39;;;;;;;3.78;1.90;;;;;;;;;;508928;29;1518;-88
2022/08/11 02:06:01;;;;;;;3.28;1.95;;;;;;;;;;505724;29;1304;-88
2022/08/11 02:06:54;;;;;;;3.38;2.00;;;;;;;;;;507924;29;1225;-89
2022/08/11 02:07:18;;;;;;;2.45;1.90;;;;;;;;;;506006;29;1310;-87
2022/08/11 02:07:54;;;;;;;3.67;2.00;;;;;;;;;;508433;29;1461;-88
2022/08/11 02:08:22;;;;;;;2.90;1.90;;;;;;;;;;504083;29;1376;-89
2022/08/11 02:08:56;;;;;;;2.50;1.75;;;;;;;;;;503963;29;1280;-89
2022/08/11 02:09:17;;;;;;;2.53;2.00;;;;;;;;;;503852;29;1309;-89
2022/08/11 02:09:54;;;;;;;2.17;1.98;;;;;;;;;;504142;29;1354;-89
2022/08/11 02:11:32;;;;;;;3.78;1.90;;;;;;;;;;506087;29;1499;-89
2022/08/11 02:11:51;;;;;;;3.20;2.03;;;;;;;;;;507821;29;1358;-88
2022/08/11 02:12:25;;;;;;;2.63;2.05;;;;;;;;;;509193;29;1262;-89
2022/08/11 02:12:49;;;;;;;3.72;1.90;;;;;;;;;;509694;29;1741;-89
2022/08/11 02:13:15;;;;;;;3.20;2.10;;;;;;;;;;511818;29;1327;-88
2022/08/11 02:14:06;;;;;;;5.10;2.30;;;;;;;;;;508033;29;1241;-88
2022/08/11 02:14:43;;;;;;;2.65;2.10;;;;;;;;;;501829;29;1531;-89
2022/08/11 02:15:07;;;;;;;3.25;2.10;;;;;;;;;;502268;29;894;-88
2022/08/11 02:15:33;;;;;;;4.15;2.20;;;;;;;;;;502192;29;1313;-88
2022/08/11 02:15:55;;;;;;;2.53;2.17;;;;;;;;;;502089;29;1254;-89
2022/08/11 02:16:47;;;;;;;3.40;2.10;;;;;;;;;;500336;29;1298;-89
2022/08/11 02:17:14;;;;;;;2.50;2.00;;;;;;;;;;502055;29;1534;-88
2022/08/11 02:18:07;;;;;;;3.55;2.00;;;;;;;;;;507983;29;1044;-89
2022/08/11 02:24:23;;;;;;;2.65;1.92;;;;;;;;;;511998;29;684;-89
2022/08/11 02:24:59;;;;;;;2.25;1.90;;;;;;;;;;510857;29;1368;-88
2022/08/11 02:25:30;;;;;;;2.53;2.03;;;;;;;;;;512019;29;1047;-88
2022/08/11 02:25:55;;;;;;;3.15;2.10;;;;;;;;;;509953;29;1350;-88
2022/08/11 02:26:20;;;;;;;3.45;2.10;;;;;;;;;;507695;29;1238;-88
2022/08/11 02:26:56;;;;;;;3.97;1.90;;;;;;;;;;507668;29;1599;-89
2022/08/11 02:27:22;;;;;;;2.30;2.10;;;;;;;;;;508002;29;913;-89
2022/08/11 02:27:46;;;;;;;2.22;2.00;;;;;;;;;;506007;29;1310;-89
2022/08/11 02:28:41;;;;;;;3.60;1.83;;;;;;;;;;506726;29;1061;-88
2022/08/11 02:29:41;;;;;;;2.13;1.90;;;;;;;;;;504617;29;1132;-88
2022/08/11 02:30:07;;;;;;;3.72;2.13;;;;;;;;;;509509;29;1716;-89
2022/08/11 02:30:27;;;;;;;2.33;2.10;;;;;;;;;;509046;29;1215;-88
2022/08/11 02:33:22;;;;;;;2.95;1.90;;;;;;;;;;510231;29;759;-88
2022/08/11 02:33:40;;;;;;;2.45;1.95;;;;;;;;;;511310;29;1420;-89
2022/08/11 02:34:24;;;;;;;4.25;1.90;;;;;;;;;;511636;29;1425;-88
2022/08/11 02:34:55;;;;;;;2.15;1.90;;;;;;;;;;511365;29;1184;-88
2022/08/11 02:35:21;;;;;;;2.30;1.92;;;;;;;;;;507630;29;1234;-88
2022/08/11 02:35:46;;;;;;;2.40;2.00;;;;;;;;;;506205;29;1364;-88
2022/08/11 02:36:19;;;;;;;2.95;2.05;;;;;;;;;;505735;29;1228;-88
2022/08/11 02:36:44;;;;;;;3.33;2.00;;;;;;;;;;505507;29;1161;-88
2022/08/11 02:37:14;;;;;;;5.55;2.30;;;;;;;;;;506637;29;861;-89
2022/08/11 02:37:32;;;;;;;2.42;1.88;;;;;;;;;;507852;29;1422;-88
2022/08/11 02:38:04;;;;;;;2.00;1.80;;;;;;;;;;508416;29;1354;-89
2022/08/11 02:38:42;;;;;;;4.20;2.00;;;;;;;;;;507767;29;862;-88
2022/08/11 02:39:08;;;;;;;3.20;2.00;;;;;;;;;;510351;29;1549;-89
2022/08/11 02:39:38;;;;;;;2.65;2.00;;;;;;;;;;510839;28;908;-89
2022/08/11 02:40:35;;;;;;;5.32;2.28;;;;;;;;;;509957;29;960;-88
2022/08/11 02:42:21;;;;;;;3.85;2.00;;;;;;;;;;507760;29;1230;-88
2022/08/11 02:42:24;;;;;;;2.80;2.17;;;;;;;;;;506068;29;1907;-89
2022/08/11 02:42:39;;;;;;;3.28;2.05;;;;;;;;;;510384;29;1485;-88
2022/08/11 02:43:09;;;;;;;3.10;1.83;;;;;;;;;;512012;29;868;-89
2022/08/11 02:43:28;;;;;;;2.30;2.10;;;;;;;;;;510568;29;1124;-89
2022/08/11 02:44:05;;;;;;;2.70;1.98;;;;;;;;;;509810;29;1328;-89
2022/08/11 02:44:36;;;;;;;3.15;1.95;;;;;;;;;;509849;29;1401;-89
2022/08/11 02:44:57;;;;;;;3.00;1.90;;;;;;;;;;506572;29;1059;-88
2022/08/11 02:45:46;;;;;;;2.53;2.05;;;;;;;;;;507815;29;1303;-89
2022/08/11 02:46:33;;;;;;;5.53;2.13;;;;;;;;;;508926;29;934;-89
2022/08/11 02:47:00;;;;;;;2.65;1.90;;;;;;;;;;502629;29;1226;-88
2022/08/11 02:49:59;;;;;;;3.40;2.15;;;;;;;;;;508237;29;770;-89
2022/08/11 02:50:22;;;;;;;3.33;2.00;;;;;;;;;;508037;29;1281;-88
2022/08/11 02:51:18;;;;;;;3.08;2.10;;;;;;;;;;507972;29;1459;-88
2022/08/11 02:51:55;;;;;;;3.53;1.90;;;;;;;;;;509279;29;1097;-88
2022/08/11 02:52:21;;;;;;;3.72;2.30;;;;;;;;;;505214;29;1255;-89
2022/08/11 02:52:59;;;;;;;2.80;1.98;;;;;;;;;;506068;29;870;-89
2022/08/11 02:53:36;;;;;;;2.22;1.98;;;;;;;;;;505993;29;1429;-89
2022/08/11 02:53:58;;;;;;;2.72;2.03;;;;;;;;;;505844;29;1314;-89
2022/08/11 02:54:19;;;;;;;4.00;1.90;;;;;;;;;;505969;29;1224;-88
2022/08/11 02:55:00;;;;;;;2.90;1.90;;;;;;;;;;506109;29;798;-89
2022/08/11 02:55:31;;;;;;;2.95;1.90;;;;;;;;;;506132;29;1371;-89
2022/08/11 02:56:07;;;;;;;2.58;1.90;;;;;;;;;;507104;29;912;-88
2022/08/11 02:56:46;;;;;;;3.30;2.10;;;;;;;;;;509323;29;1521;-90
2022/08/11 02:57:12;;;;;;;5.22;2.10;;;;;;;;;;510077;29;1279;-89
2022/08/11 02:57:39;;;;;;;2.42;1.90;;;;;;;;;;509702;29;1398;-89
2022/08/11 02:59:49;;;;;;;3.03;2.10;;;;;;;;;;509991;29;889;-89
2022/08/11 02:59:52;;;;;;;3.35;2.10;;;;;;;;;;503693;29;1354;-89
2022/08/11 03:00:10;;;;;;;4.05;2.08;;;;;;;;;;500183;29;891;-88
2022/08/11 03:00:28;;;;;;;3.10;2.20;;;;;;;;;;499883;29;1213;-88
2022/08/11 03:00:52;;;;;;;2.72;1.98;;;;;;;;;;500898;29;1237;-89
2022/08/11 03:01:26;;;;;;;3.67;2.15;;;;;;;;;;499509;29;1239;-89
2022/08/11 03:01:52;;;;;;;3.50;2.00;;;;;;;;;;500091;29;1907;-88
2022/08/11 03:02:50;;;;;;;4.22;1.98;;;;;;;;;;500033;29;1494;-90
2022/08/11 03:03:26;;;;;;;3.22;2.13;;;;;;;;;;497612;29;1371;-89
2022/08/11 03:03:45;;;;;;;2.95;2.15;;;;;;;;;;498351;29;1432;-89
2022/08/11 03:04:11;;;;;;;3.83;2.05;;;;;;;;;;499793;29;1454;-89
2022/08/11 03:04:59;;;;;;;3.05;2.00;;;;;;;;;;500089;29;1576;-89
2022/08/11 03:05:38;;;;;;;3.15;2.08;;;;;;;;;;501472;29;1299;-90
2022/08/11 03:06:11;;;;;;;3.50;2.20;;;;;;;;;;499411;29;1244;-89
2022/08/11 03:06:48;;;;;;;2.33;1.92;;;;;;;;;;501649;29;1297;-89
2022/08/11 03:07:24;;;;;;;3.30;2.00;;;;;;;;;;501600;29;1277;-89
2022/08/11 03:08:05;;;;;;;3.33;2.00;;;;;;;;;;502204;29;842;-89
2022/08/11 03:08:55;;;;;;;2.55;2.00;;;;;;;;;;499960;29;1239;-89
2022/08/11 03:09:42;;;;;;;2.47;2.20;;;;;;;;;;494599;29;1443;-90
2022/08/11 03:10:22;;;;;;;3.10;2.15;;;;;;;;;;497142;29;1175;-89
2022/08/11 03:16:44;;;;;;;3.95;2.10;;;;;;;;;;500442;29;1469;-89
2022/08/11 03:17:15;;;;;;;2.85;2.00;;;;;;;;;;500336;29;924;-89
2022/08/11 03:18:07;;;;;;;5.00;2.45;;;;;;;;;;498416;29;1413;-89
2022/08/11 03:18:48;;;;;;;3.10;2.17;;;;;;;;;;500424;29;1328;-88
2022/08/11 03:19:29;;;;;;;2.60;2.20;;;;;;;;;;498522;29;1275;-89
2022/08/11 03:19:50;;;;;;;3.63;2.22;;;;;;;;;;497979;29;1495;-89
2022/08/11 03:20:12;;;;;;;3.17;2.20;;;;;;;;;;496863;29;1241;-89
2022/08/11 03:20:33;;;;;;;2.40;2.10;;;;;;;;;;496629;29;851;-89
2022/08/11 03:21:14;;;;;;;3.28;2.20;;;;;;;;;;494794;29;1372;-89
2022/08/11 03:21:55;;;;;;;3.28;2.22;;;;;;;;;;494894;30;1328;-89
2022/08/11 03:22:23;;;;;;;3.92;2.17;;;;;;;;;;497053;29;1395;-89
2022/08/11 03:23:01;;;;;;;2.67;2.00;;;;;;;;;;498570;29;1439;-89
2022/08/11 03:23:41;;;;;;;3.03;2.15;;;;;;;;;;498568;29;1207;-89
2022/08/11 03:24:02;;;;;;;2.45;2.00;;;;;;;;;;500329;29;902;-89
2022/08/11 03:24:28;;;;;;;3.70;2.25;;;;;;;;;;500132;29;1618;-89
2022/08/11 03:25:01;;;;;;;3.53;2.30;;;;;;;;;;500386;29;1196;-89
2022/08/11 03:25:30;;;;;;;6.93;2.30;;;;;;;;;;501591;29;863;-89
2022/08/11 03:25:45;;;;;;;3.15;2.10;;;;;;;;;;497936;29;1584;-89
2022/08/11 03:26:37;;;;;;;2.30;2.00;;;;;;;;;;497981;29;1307;-89
2022/08/11 03:27:27;;;;;;;3.20;2.25;;;;;;;;;;499008;29;1328;-89
2022/08/11 03:28:30;;;;;;;4.47;2.40;;;;;;;;;;501589;29;1259;-89
2022/08/11 03:29:24;;;;;;;4.60;2.20;;;;;;;;;;498463;29;1075;-89